Time;durP1;ratioP1;P1;durP2;ratioP2;P2;SDS_P1;SDS_P2;PMS_P1;PMS_P2;Temp;Humidity;BMP_temperature;BMP_pressure;BME280_temperature;BME280_humidity;BME280_pressure;Samples;Min_cycle;Max_cycle;Signal;HPM_P1;HPM_P2
2021/07/14 00:01:43;;;;;;;60.35;41.35;;;;;;;;;;5012511;28;20213;-69
2021/07/14 00:04:09;;;;;;;66.28;40.67;;;;;;;;;;5010754;28;20870;-69
2021/07/14 00:06:35;;;;;;;61.58;39.92;;;;;;;;;;5019938;28;20238;-69
2021/07/14 00:09:00;;;;;;;63.75;41.15;;;;;;;;;;5021976;28;20178;-70
2021/07/14 00:11:28;;;;;;;60.97;39.70;;;;;;;;;;5023654;28;20213;-69
2021/07/14 00:22:08;;;;;;;64.88;40.40;;;;;;;;;;5026070;28;20193;-69
2021/07/14 00:24:33;;;;;;;58.53;38.33;;;;;;;;;;5018165;28;20225;-69
2021/07/14 00:26:59;;;;;;;56.78;38.53;;;;;;;;;;5026144;28;20233;-68
2021/07/14 00:29:24;;;;;;;61.17;40.83;;;;;;;;;;5019194;28;20174;-69
2021/07/14 00:31:50;;;;;;;66.60;39.92;;;;;;;;;;5025690;28;20236;-69
2021/07/14 00:34:15;;;;;;;62.88;39.72;;;;;;;;;;5022507;28;20190;-69
2021/07/14 00:36:40;;;;;;;61.75;39.20;;;;;;;;;;5025622;28;20186;-70
2021/07/14 00:39:06;;;;;;;64.63;39.67;;;;;;;;;;5011906;28;20199;-69
2021/07/14 00:41:31;;;;;;;61.03;38.47;;;;;;;;;;5023751;28;20222;-70
2021/07/14 00:43:56;;;;;;;61.75;40.08;;;;;;;;;;5016131;28;20635;-69
2021/07/14 00:46:27;;;;;;;55.95;36.85;;;;;;;;;;5022231;28;20637;-70
2021/07/14 00:48:57;;;;;;;60.58;38.10;;;;;;;;;;5017414;28;20225;-70
2021/07/14 00:51:22;;;;;;;57.80;37.38;;;;;;;;;;5039283;28;20236;-69
2021/07/14 00:53:50;;;;;;;60.65;37.00;;;;;;;;;;5044048;28;20217;-69
2021/07/14 00:56:15;;;;;;;66.18;37.75;;;;;;;;;;5034100;28;20613;-69
2021/07/14 00:58:41;;;;;;;59.47;38.35;;;;;;;;;;5046201;28;20225;-69
2021/07/14 01:01:07;;;;;;;59.90;37.90;;;;;;;;;;5034915;28;20336;-69
2021/07/14 01:03:39;;;;;;;63.47;38.75;;;;;;;;;;5048002;28;20256;-69
2021/07/14 01:06:08;;;;;;;59.80;38.30;;;;;;;;;;5019687;28;20201;-69
2021/07/14 01:08:46;;;;;;;61.28;39.33;;;;;;;;;;5054064;28;20169;-69
2021/07/14 01:11:16;;;;;;;69.72;39.40;;;;;;;;;;5033552;28;20737;-70
2021/07/14 01:13:54;;;;;;;64.30;39.97;;;;;;;;;;5050439;28;20181;-69
2021/07/14 01:16:23;;;;;;;64.82;38.70;;;;;;;;;;5035021;28;20280;-70
2021/07/14 01:18:54;;;;;;;64.85;40.60;;;;;;;;;;5048249;28;20214;-70
2021/07/14 01:21:28;;;;;;;65.82;39.95;;;;;;;;;;5037004;28;20200;-69
2021/07/14 01:24:17;;;;;;;64.25;38.15;;;;;;;;;;5047910;28;20189;-69
2021/07/14 01:27:12;;;;;;;64.57;39.63;;;;;;;;;;5036335;28;20185;-69
2021/07/14 01:29:49;;;;;;;65.30;38.13;;;;;;;;;;5025427;28;20242;-69
2021/07/14 01:32:16;;;;;;;59.10;37.38;;;;;;;;;;5034905;28;20215;-69
2021/07/14 01:34:45;;;;;;;58.40;38.13;;;;;;;;;;5044304;28;20247;-69
2021/07/14 01:37:15;;;;;;;59.47;37.33;;;;;;;;;;5035464;28;20269;-69
2021/07/14 01:39:43;;;;;;;61.95;38.45;;;;;;;;;;5042304;28;20217;-70
2021/07/14 01:42:12;;;;;;;60.35;39.20;;;;;;;;;;5032282;28;20191;-70
2021/07/14 01:44:37;;;;;;;59.65;37.38;;;;;;;;;;5043629;28;20248;-70
2021/07/14 01:47:03;;;;;;;59.50;36.28;;;;;;;;;;5038170;28;20645;-70
2021/07/14 01:49:31;;;;;;;62.83;39.00;;;;;;;;;;5044937;28;20284;-69
2021/07/14 01:52:04;;;;;;;54.63;36.30;;;;;;;;;;5043414;28;20204;-70
2021/07/14 01:54:30;;;;;;;57.22;35.72;;;;;;;;;;5044248;28;20255;-69
2021/07/14 01:56:58;;;;;;;59.90;38.42;;;;;;;;;;5048687;28;20177;-69
2021/07/14 01:59:25;;;;;;;55.83;37.08;;;;;;;;;;5032902;28;20206;-69
2021/07/14 02:01:52;;;;;;;55.55;36.13;;;;;;;;;;5047829;28;20239;-70
2021/07/14 02:04:33;;;;;;;54.90;37.47;;;;;;;;;;5033776;28;20190;-69
2021/07/14 02:07:09;;;;;;;56.75;37.25;;;;;;;;;;5045698;28;20188;-69
2021/07/14 02:09:35;;;;;;;64.95;37.50;;;;;;;;;;5034008;28;20192;-69
2021/07/14 02:12:03;;;;;;;58.97;37.80;;;;;;;;;;5043760;28;20185;-70
2021/07/14 02:14:36;;;;;;;54.85;36.40;;;;;;;;;;5037560;28;20685;-72
2021/07/14 02:17:06;;;;;;;64.20;38.33;;;;;;;;;;5046196;28;20205;-70
2021/07/14 02:19:36;;;;;;;66.50;40.00;;;;;;;;;;5030544;28;20531;-69
2021/07/14 02:22:02;;;;;;;69.82;38.63;;;;;;;;;;5045004;28;20208;-70
2021/07/14 02:24:29;;;;;;;63.67;38.63;;;;;;;;;;5033308;28;20579;-69
2021/07/14 02:26:57;;;;;;;73.32;39.80;;;;;;;;;;5048904;28;20173;-70
2021/07/14 02:29:22;;;;;;;70.68;39.60;;;;;;;;;;5031837;28;20706;-70
2021/07/14 02:31:47;;;;;;;73.90;37.55;;;;;;;;;;5045303;28;20221;-69
2021/07/14 02:34:12;;;;;;;75.03;39.22;;;;;;;;;;5031556;28;20192;-69
2021/07/14 02:36:40;;;;;;;77.57;40.63;;;;;;;;;;5046371;28;20272;-74
2021/07/14 02:39:08;;;;;;;74.97;37.75;;;;;;;;;;5040953;28;20189;-70
2021/07/14 02:41:43;;;;;;;79.78;38.53;;;;;;;;;;5036091;28;20192;-69
2021/07/14 02:44:10;;;;;;;79.78;37.58;;;;;;;;;;5043439;28;20663;-69
2021/07/14 02:46:40;;;;;;;80.70;39.70;;;;;;;;;;5036155;28;20269;-69
2021/07/14 02:49:08;;;;;;;90.15;39.63;;;;;;;;;;5046288;28;20632;-69
2021/07/14 02:51:36;;;;;;;86.07;40.13;;;;;;;;;;5034584;28;20600;-69
2021/07/14 02:54:05;;;;;;;84.80;40.03;;;;;;;;;;5044221;28;20173;-69
2021/07/14 02:56:32;;;;;;;95.88;39.00;;;;;;;;;;5035608;28;20220;-69
2021/07/14 02:59:05;;;;;;;91.10;39.80;;;;;;;;;;5043827;28;20201;-70
2021/07/14 03:01:32;;;;;;;96.50;40.28;;;;;;;;;;5038473;28;20178;-69
2021/07/14 03:03:58;;;;;;;85.82;39.03;;;;;;;;;;5041355;28;20235;-69
2021/07/14 03:06:24;;;;;;;89.55;40.03;;;;;;;;;;5036149;28;20220;-70
2021/07/14 03:08:51;;;;;;;90.90;39.95;;;;;;;;;;5043204;28;20215;-69
2021/07/14 03:11:18;;;;;;;89.95;40.63;;;;;;;;;;5033232;28;20189;-70
2021/07/14 03:13:44;;;;;;;90.47;40.25;;;;;;;;;;5049385;28;20234;-69
2021/07/14 03:16:11;;;;;;;85.78;39.92;;;;;;;;;;5039007;28;20212;-70
2021/07/14 03:18:37;;;;;;;88.38;41.38;;;;;;;;;;5042719;28;20284;-70
2021/07/14 03:21:03;;;;;;;88.10;40.55;;;;;;;;;;5044431;28;20606;-69
2021/07/14 03:23:30;;;;;;;87.70;40.15;;;;;;;;;;5036922;28;20185;-70
2021/07/14 03:25:58;;;;;;;94.13;41.55;;;;;;;;;;5040251;28;20334;-69
2021/07/14 03:28:25;;;;;;;97.35;42.58;;;;;;;;;;5033847;28;20268;-70
2021/07/14 03:30:52;;;;;;;91.28;42.95;;;;;;;;;;5043498;28;20236;-69
2021/07/14 03:33:18;;;;;;;87.22;42.83;;;;;;;;;;5037023;28;20185;-69
2021/07/14 03:35:44;;;;;;;89.40;41.58;;;;;;;;;;5042793;28;20208;-70
2021/07/14 03:38:11;;;;;;;90.30;42.78;;;;;;;;;;5030020;28;20228;-70
2021/07/14 03:40:40;;;;;;;97.63;44.13;;;;;;;;;;5044146;28;20687;-70
2021/07/14 03:43:07;;;;;;;97.13;43.83;;;;;;;;;;5030051;28;20641;-69
2021/07/14 03:45:33;;;;;;;95.07;43.67;;;;;;;;;;5044096;28;20305;-69
2021/07/14 03:47:59;;;;;;;104.85;47.00;;;;;;;;;;5040322;28;20212;-69
2021/07/14 03:50:25;;;;;;;95.90;46.15;;;;;;;;;;5036962;28;20727;-69
2021/07/14 03:52:52;;;;;;;94.75;43.03;;;;;;;;;;5036983;28;20515;-70
2021/07/14 03:55:18;;;;;;;93.15;45.03;;;;;;;;;;5032034;28;20187;-70
2021/07/14 03:57:44;;;;;;;84.25;43.08;;;;;;;;;;5043948;28;20182;-69
2021/07/14 04:00:10;;;;;;;89.30;45.20;;;;;;;;;;5030411;28;20704;-69
2021/07/14 04:02:37;;;;;;;90.28;45.20;;;;;;;;;;5046610;28;20691;-70
2021/07/14 04:05:04;;;;;;;92.25;45.15;;;;;;;;;;5032821;28;20189;-70
2021/07/14 04:07:32;;;;;;;89.13;44.25;;;;;;;;;;5043739;28;20658;-69
2021/07/14 04:09:57;;;;;;;89.55;44.92;;;;;;;;;;5032771;28;20190;-69
2021/07/14 04:12:23;;;;;;;87.82;44.10;;;;;;;;;;5043511;28;20664;-69
2021/07/14 04:14:49;;;;;;;87.07;45.65;;;;;;;;;;5032014;28;20494;-70
2021/07/14 04:17:14;;;;;;;95.80;43.75;;;;;;;;;;5041512;28;20193;-69
2021/07/14 04:19:40;;;;;;;99.13;46.65;;;;;;;;;;5034353;28;20736;-69
2021/07/14 04:22:07;;;;;;;96.13;46.88;;;;;;;;;;5041736;28;20194;-69
2021/07/14 04:24:34;;;;;;;90.82;46.03;;;;;;;;;;5045089;28;20225;-69
2021/07/14 04:26:59;;;;;;;94.47;45.50;;;;;;;;;;5039047;28;20968;-68
2021/07/14 04:29:25;;;;;;;95.88;46.92;;;;;;;;;;5042073;28;20182;-69
2021/07/14 04:31:50;;;;;;;88.30;44.63;;;;;;;;;;5038077;28;20189;-69
2021/07/14 04:34:16;;;;;;;96.15;47.33;;;;;;;;;;5044278;28;20190;-70
2021/07/14 04:36:41;;;;;;;93.18;46.85;;;;;;;;;;5036592;28;20177;-70
2021/07/14 04:39:08;;;;;;;88.20;44.42;;;;;;;;;;5044110;28;20206;-70
2021/07/14 04:41:34;;;;;;;84.05;44.15;;;;;;;;;;5038604;28;20181;-69
2021/07/14 04:44:02;;;;;;;83.22;45.03;;;;;;;;;;5041524;28;20197;-69
2021/07/14 04:46:28;;;;;;;81.82;44.85;;;;;;;;;;5038897;28;20239;-70
2021/07/14 04:48:53;;;;;;;81.70;44.50;;;;;;;;;;5039484;28;20222;-69
2021/07/14 04:51:20;;;;;;;85.45;43.63;;;;;;;;;;5019112;28;20201;-74
2021/07/14 04:53:45;;;;;;;74.60;39.90;;;;;;;;;;5012089;28;20269;-69
2021/07/14 04:56:12;;;;;;;73.50;41.15;;;;;;;;;;5030069;28;20626;-70
2021/07/14 04:58:38;;;;;;;73.85;41.80;;;;;;;;;;5018439;28;20305;-70
2021/07/14 05:01:03;;;;;;;72.25;42.25;;;;;;;;;;5028348;28;20284;-70
2021/07/14 05:03:28;;;;;;;81.82;44.30;;;;;;;;;;5020740;28;20201;-69
2021/07/14 05:05:54;;;;;;;82.97;44.78;;;;;;;;;;5027965;28;20186;-69
2021/07/14 05:08:19;;;;;;;79.28;42.15;;;;;;;;;;5019889;28;20725;-69
2021/07/14 05:10:48;;;;;;;80.18;43.25;;;;;;;;;;5028515;28;20303;-69
2021/07/14 05:13:13;;;;;;;78.45;43.13;;;;;;;;;;5018888;28;20293;-70
2021/07/14 05:15:38;;;;;;;80.82;41.38;;;;;;;;;;5033510;28;20493;-70
2021/07/14 05:18:04;;;;;;;83.85;44.15;;;;;;;;;;5018466;28;20198;-70
2021/07/14 05:20:29;;;;;;;72.47;42.15;;;;;;;;;;5028323;28;20190;-70
2021/07/14 05:22:54;;;;;;;81.38;42.70;;;;;;;;;;5014489;28;20194;-70
2021/07/14 05:25:20;;;;;;;78.18;42.17;;;;;;;;;;5024250;28;20212;-70
2021/07/14 05:27:46;;;;;;;77.25;42.05;;;;;;;;;;5024756;28;20182;-69
2021/07/14 05:30:14;;;;;;;80.72;42.15;;;;;;;;;;5020559;28;20186;-69
2021/07/14 05:32:39;;;;;;;69.85;41.50;;;;;;;;;;5027290;28;20273;-73
2021/07/14 05:35:05;;;;;;;78.25;43.25;;;;;;;;;;5017914;28;20305;-69
2021/07/14 05:37:31;;;;;;;73.82;42.55;;;;;;;;;;5026062;28;20201;-70
2021/07/14 05:39:56;;;;;;;70.20;40.55;;;;;;;;;;5019782;28;20206;-69
2021/07/14 05:42:21;;;;;;;73.32;41.92;;;;;;;;;;5022648;28;20188;-69
2021/07/14 05:44:47;;;;;;;72.55;41.92;;;;;;;;;;5021492;28;20186;-69
2021/07/14 05:47:12;;;;;;;77.03;42.15;;;;;;;;;;5024441;28;20194;-69
2021/07/14 05:49:38;;;;;;;81.00;43.05;;;;;;;;;;5029851;28;20217;-69
2021/07/14 05:52:03;;;;;;;79.25;43.60;;;;;;;;;;5041567;28;20178;-70
2021/07/14 05:54:29;;;;;;;76.75;43.88;;;;;;;;;;5037733;28;20302;-70
2021/07/14 05:56:54;;;;;;;81.32;43.67;;;;;;;;;;5038753;28;20178;-69
2021/07/14 05:59:19;;;;;;;80.03;42.80;;;;;;;;;;5044828;28;20202;-69
2021/07/14 06:01:45;;;;;;;84.80;44.05;;;;;;;;;;5014969;28;20181;-74
2021/07/14 06:04:10;;;;;;;77.15;43.88;;;;;;;;;;5045541;28;20192;-70
2021/07/14 06:06:35;;;;;;;84.13;44.88;;;;;;;;;;5010158;28;20668;-70
2021/07/14 06:09:01;;;;;;;86.30;46.33;;;;;;;;;;5045120;28;20276;-69
2021/07/14 06:11:27;;;;;;;74.50;44.42;;;;;;;;;;5031068;28;20205;-70
2021/07/14 06:13:52;;;;;;;82.93;44.30;;;;;;;;;;5049302;28;20193;-70
2021/07/14 06:16:18;;;;;;;77.95;43.90;;;;;;;;;;5030244;28;20332;-71
2021/07/14 06:18:43;;;;;;;78.80;45.08;;;;;;;;;;5041896;28;20200;-71
2021/07/14 06:21:10;;;;;;;76.93;44.00;;;;;;;;;;5030462;28;20201;-70
2021/07/14 06:23:35;;;;;;;69.88;41.67;;;;;;;;;;5029364;28;20288;-72
2021/07/14 06:26:01;;;;;;;75.93;43.38;;;;;;;;;;5032453;28;20258;-70
2021/07/14 06:28:26;;;;;;;71.93;43.22;;;;;;;;;;5043038;28;20219;-70
2021/07/14 06:30:52;;;;;;;77.03;44.63;;;;;;;;;;5042110;28;20669;-73
2021/07/14 06:33:17;;;;;;;76.57;44.22;;;;;;;;;;5037987;28;20858;-70
2021/07/14 06:35:43;;;;;;;75.47;42.58;;;;;;;;;;5040779;28;20181;-71
2021/07/14 06:38:09;;;;;;;75.10;43.63;;;;;;;;;;5034474;28;20187;-70
2021/07/14 06:40:37;;;;;;;83.85;45.22;;;;;;;;;;5041574;28;20208;-70
2021/07/14 06:43:06;;;;;;;86.78;46.45;;;;;;;;;;5030033;28;20174;-70
2021/07/14 06:45:31;;;;;;;83.30;45.90;;;;;;;;;;5044995;28;20209;-70
2021/07/14 06:47:57;;;;;;;86.18;45.47;;;;;;;;;;5035494;28;20777;-71
2021/07/14 06:50:22;;;;;;;86.93;45.05;;;;;;;;;;5023056;28;20233;-70
2021/07/14 06:52:47;;;;;;;84.20;43.47;;;;;;;;;;5018504;28;20219;-70
2021/07/14 06:55:13;;;;;;;80.57;43.70;;;;;;;;;;5022331;28;20174;-70
2021/07/14 06:57:40;;;;;;;80.72;44.03;;;;;;;;;;5013909;28;20592;-70
2021/07/14 07:00:08;;;;;;;87.75;43.95;;;;;;;;;;5007123;28;20201;-70
2021/07/14 07:02:33;;;;;;;80.53;44.80;;;;;;;;;;5024457;28;20538;-70
2021/07/14 07:04:58;;;;;;;80.75;44.42;;;;;;;;;;5014429;28;20312;-71
2021/07/14 07:07:24;;;;;;;79.03;42.42;;;;;;;;;;5023649;28;20190;-70
2021/07/14 07:09:49;;;;;;;78.85;43.22;;;;;;;;;;5014014;28;20197;-70
2021/07/14 07:12:14;;;;;;;82.45;42.22;;;;;;;;;;5002758;28;20190;-70
2021/07/14 07:14:43;;;;;;;72.97;41.25;;;;;;;;;;5014130;28;20725;-71
2021/07/14 07:17:08;;;;;;;78.50;43.20;;;;;;;;;;5025282;28;20198;-70
2021/07/14 07:19:33;;;;;;;76.55;43.53;;;;;;;;;;5015380;28;20562;-70
2021/07/14 07:21:59;;;;;;;82.07;42.45;;;;;;;;;;5021375;28;20186;-70
2021/07/14 07:24:24;;;;;;;79.82;42.08;;;;;;;;;;4996963;28;20191;-70
2021/07/14 07:26:50;;;;;;;79.07;41.83;;;;;;;;;;5023185;28;20194;-71
2021/07/14 07:29:16;;;;;;;76.95;40.97;;;;;;;;;;5013284;28;20174;-70
2021/07/14 07:31:41;;;;;;;79.22;41.85;;;;;;;;;;5024967;28;20304;-70
2021/07/14 07:34:07;;;;;;;72.70;40.13;;;;;;;;;;5022997;28;20618;-71
2021/07/14 07:36:32;;;;;;;72.80;40.60;;;;;;;;;;5011999;28;20186;-70
2021/07/14 07:38:58;;;;;;;75.55;42.05;;;;;;;;;;5008042;28;20297;-71
2021/07/14 07:41:24;;;;;;;70.90;39.83;;;;;;;;;;5013059;28;20194;-71
2021/07/14 07:43:51;;;;;;;69.35;38.38;;;;;;;;;;5024211;28;20231;-70
2021/07/14 07:46:16;;;;;;;68.78;37.83;;;;;;;;;;5016781;28;20240;-70
2021/07/14 07:48:42;;;;;;;64.57;38.53;;;;;;;;;;5024955;28;20841;-71
2021/07/14 07:51:08;;;;;;;69.60;38.42;;;;;;;;;;5016140;28;20575;-70
2021/07/14 07:53:34;;;;;;;60.80;36.45;;;;;;;;;;5028060;28;20201;-70
2021/07/14 07:56:00;;;;;;;65.00;37.03;;;;;;;;;;5019695;28;20672;-69
2021/07/14 07:58:26;;;;;;;61.05;38.10;;;;;;;;;;5027019;28;20205;-69
2021/07/14 08:00:52;;;;;;;60.70;36.78;;;;;;;;;;5021178;28;21068;-71
2021/07/14 08:03:17;;;;;;;61.67;38.03;;;;;;;;;;5029040;28;20197;-70
2021/07/14 08:05:43;;;;;;;60.75;37.00;;;;;;;;;;5023451;28;20182;-70
2021/07/14 08:08:09;;;;;;;66.97;38.80;;;;;;;;;;5018511;28;20194;-71
2021/07/14 08:10:34;;;;;;;68.40;38.72;;;;;;;;;;5023037;28;20197;-70
2021/07/14 08:13:00;;;;;;;68.53;39.25;;;;;;;;;;5018969;28;20202;-71
2021/07/14 08:15:25;;;;;;;69.10;39.95;;;;;;;;;;5027258;28;20229;-73
2021/07/14 08:17:51;;;;;;;69.32;39.30;;;;;;;;;;5016434;28;20438;-70
2021/07/14 08:20:16;;;;;;;71.05;42.55;;;;;;;;;;5022988;28;20206;-70
2021/07/14 08:22:42;;;;;;;72.22;39.90;;;;;;;;;;5019507;28;20557;-69
2021/07/14 08:25:09;;;;;;;71.45;40.35;;;;;;;;;;5028244;28;20273;-71
2021/07/14 08:27:35;;;;;;;72.10;39.72;;;;;;;;;;5021106;28;20244;-70
2021/07/14 08:30:00;;;;;;;66.25;39.17;;;;;;;;;;5023737;28;20228;-70
2021/07/14 08:32:27;;;;;;;71.80;40.45;;;;;;;;;;5015492;28;20622;-77
2021/07/14 08:34:53;;;;;;;62.92;39.88;;;;;;;;;;5022143;28;20189;-70
2021/07/14 08:37:19;;;;;;;63.00;39.60;;;;;;;;;;5022287;28;20818;-70
2021/07/14 08:39:44;;;;;;;63.78;38.15;;;;;;;;;;5015009;28;20198;-71
2021/07/14 08:42:13;;;;;;;66.10;40.42;;;;;;;;;;5029101;28;20182;-70
2021/07/14 08:44:38;;;;;;;62.08;38.17;;;;;;;;;;4996852;28;20194;-71
2021/07/14 08:47:07;;;;;;;65.97;37.55;;;;;;;;;;5027514;28;20185;-71
2021/07/14 08:49:32;;;;;;;60.88;37.75;;;;;;;;;;5017129;28;20219;-70
2021/07/14 08:51:57;;;;;;;57.00;36.28;;;;;;;;;;5020484;28;20649;-70
2021/07/14 08:54:23;;;;;;;62.20;36.75;;;;;;;;;;5014270;28;20197;-71
2021/07/14 08:56:50;;;;;;;61.78;38.13;;;;;;;;;;5024606;28;20197;-71
2021/07/14 08:59:17;;;;;;;50.60;35.55;;;;;;;;;;5016845;28;20558;-71
2021/07/14 09:01:44;;;;;;;60.85;36.13;;;;;;;;;;5027444;28;20181;-70
2021/07/14 09:04:10;;;;;;;49.25;35.45;;;;;;;;;;5016171;28;20190;-71
2021/07/14 09:06:36;;;;;;;49.58;32.75;;;;;;;;;;5018434;28;20175;-70
2021/07/14 09:09:02;;;;;;;65.53;39.55;;;;;;;;;;5007493;28;20186;-72
2021/07/14 09:11:28;;;;;;;50.65;33.85;;;;;;;;;;5019638;28;20182;-72
2021/07/14 09:13:53;;;;;;;56.25;35.60;;;;;;;;;;5008916;28;20257;-71
2021/07/14 09:16:33;;;;;;;48.20;33.08;;;;;;;;;;5011833;28;20194;-71
2021/07/14 09:19:13;;;;;;;46.03;31.63;;;;;;;;;;5026259;28;20235;-72
2021/07/14 09:21:40;;;;;;;44.50;31.52;;;;;;;;;;5016056;28;20190;-70
2021/07/14 09:24:32;;;;;;;43.97;30.80;;;;;;;;;;5008416;28;20190;-70
2021/07/14 09:26:59;;;;;;;46.28;30.65;;;;;;;;;;5009124;28;20210;-72
2021/07/14 09:29:25;;;;;;;41.22;30.08;;;;;;;;;;5027061;28;20209;-70
2021/07/14 09:31:51;;;;;;;42.28;29.83;;;;;;;;;;5015133;28;20242;-71
2021/07/14 09:34:27;;;;;;;39.50;30.13;;;;;;;;;;5025983;28;20243;-70
2021/07/14 09:37:03;;;;;;;41.33;28.48;;;;;;;;;;5016292;28;20225;-71
2021/07/14 09:39:37;;;;;;;39.17;29.08;;;;;;;;;;5027176;28;20186;-72
2021/07/14 09:42:13;;;;;;;40.08;28.13;;;;;;;;;;5014597;28;20281;-71
2021/07/14 09:44:47;;;;;;;37.53;27.73;;;;;;;;;;5025220;28;20178;-68
2021/07/14 09:47:20;;;;;;;37.38;28.55;;;;;;;;;;5010927;28;20200;-71
2021/07/14 09:49:47;;;;;;;32.72;26.65;;;;;;;;;;5026307;28;20229;-71
2021/07/14 09:52:15;;;;;;;37.58;27.00;;;;;;;;;;5016104;28;20224;-74
2021/07/14 09:54:41;;;;;;;38.53;26.17;;;;;;;;;;5026420;28;20177;-71
2021/07/14 09:57:17;;;;;;;37.17;26.02;;;;;;;;;;5013905;28;20194;-72
2021/07/14 09:59:45;;;;;;;36.88;27.45;;;;;;;;;;5026230;28;20595;-71
2021/07/14 10:02:13;;;;;;;35.20;26.58;;;;;;;;;;5015118;28;20190;-72
2021/07/14 10:04:40;;;;;;;33.63;25.75;;;;;;;;;;5027888;28;20197;-72
2021/07/14 10:07:23;;;;;;;32.83;26.02;;;;;;;;;;5023255;28;20320;-72
2021/07/14 10:09:49;;;;;;;30.77;25.77;;;;;;;;;;5022754;28;20180;-69
2021/07/14 10:12:27;;;;;;;32.67;25.92;;;;;;;;;;5022830;28;20187;-69
2021/07/14 10:14:54;;;;;;;35.15;26.30;;;;;;;;;;5014554;28;20288;-68
2021/07/14 10:17:38;;;;;;;35.25;26.27;;;;;;;;;;5021585;28;20301;-70
2021/07/14 10:20:25;;;;;;;32.28;26.42;;;;;;;;;;5012330;28;20691;-70
2021/07/14 10:22:53;;;;;;;32.85;25.70;;;;;;;;;;5025825;28;20174;-71
2021/07/14 10:25:19;;;;;;;32.50;25.95;;;;;;;;;;5011791;28;20194;-71
2021/07/14 10:27:50;;;;;;;33.05;25.52;;;;;;;;;;5021786;28;20708;-72
2021/07/14 10:30:17;;;;;;;34.38;25.70;;;;;;;;;;5008583;28;20213;-72
2021/07/14 10:32:42;;;;;;;31.35;25.65;;;;;;;;;;5004588;28;20201;-69
2021/07/14 10:35:10;;;;;;;32.13;25.60;;;;;;;;;;5009480;28;20205;-69
2021/07/14 10:37:38;;;;;;;36.03;25.88;;;;;;;;;;5020019;28;20186;-71
2021/07/14 10:40:06;;;;;;;31.63;25.88;;;;;;;;;;5012186;28;20246;-69
2021/07/14 10:42:33;;;;;;;31.75;24.67;;;;;;;;;;5026844;28;20182;-69
2021/07/14 10:44:59;;;;;;;38.88;26.00;;;;;;;;;;5012765;28;20209;-68
2021/07/14 10:47:25;;;;;;;31.35;24.80;;;;;;;;;;5025221;28;20324;-70
2021/07/14 10:49:52;;;;;;;31.98;25.85;;;;;;;;;;5014189;28;20786;-70
2021/07/14 10:52:18;;;;;;;29.55;23.98;;;;;;;;;;5045161;28;20263;-69
2021/07/14 10:54:43;;;;;;;32.00;24.98;;;;;;;;;;5044246;28;20622;-70
2021/07/14 10:57:09;;;;;;;34.90;25.92;;;;;;;;;;5036081;28;20184;-72
2021/07/14 10:59:35;;;;;;;29.50;24.92;;;;;;;;;;5044825;28;20213;-71
2021/07/14 11:02:01;;;;;;;29.88;24.70;;;;;;;;;;5035676;28;20193;-69
2021/07/14 11:04:26;;;;;;;29.38;24.77;;;;;;;;;;5045389;28;20192;-71
2021/07/14 11:06:56;;;;;;;29.92;24.83;;;;;;;;;;5035192;28;20185;-69
2021/07/14 11:09:34;;;;;;;29.52;24.48;;;;;;;;;;5045300;28;20182;-71
2021/07/14 11:12:02;;;;;;;32.72;23.80;;;;;;;;;;5033258;28;20216;-70
2021/07/14 11:14:39;;;;;;;31.05;25.75;;;;;;;;;;5041641;28;20499;-70
2021/07/14 11:17:06;;;;;;;33.78;25.50;;;;;;;;;;5033137;28;20191;-71
2021/07/14 11:19:44;;;;;;;27.30;24.25;;;;;;;;;;5039775;28;20197;-70
2021/07/14 11:22:10;;;;;;;30.58;24.70;;;;;;;;;;5036435;28;20193;-71
2021/07/14 11:24:52;;;;;;;29.98;24.92;;;;;;;;;;5041863;28;20213;-70
2021/07/14 11:27:18;;;;;;;28.33;25.00;;;;;;;;;;5037164;28;20192;-69
2021/07/14 11:29:44;;;;;;;28.52;25.48;;;;;;;;;;5041492;28;20185;-70
2021/07/14 11:32:09;;;;;;;28.27;23.42;;;;;;;;;;5030902;28;20185;-70
2021/07/14 11:34:37;;;;;;;29.95;25.63;;;;;;;;;;5041736;28;20656;-70
2021/07/14 11:37:20;;;;;;;29.00;25.20;;;;;;;;;;5033684;28;20244;-69
2021/07/14 11:39:45;;;;;;;30.83;25.92;;;;;;;;;;5038048;28;20215;-71
2021/07/14 11:42:17;;;;;;;28.55;24.02;;;;;;;;;;5029381;28;20194;-70
2021/07/14 11:44:51;;;;;;;31.17;24.65;;;;;;;;;;5040625;28;20209;-71
2021/07/14 11:47:36;;;;;;;29.20;24.52;;;;;;;;;;5040032;28;20174;-70
2021/07/14 11:50:04;;;;;;;29.25;26.13;;;;;;;;;;5029918;28;20218;-68
2021/07/14 11:52:43;;;;;;;28.35;25.33;;;;;;;;;;5025361;28;20190;-70
2021/07/14 11:55:23;;;;;;;28.73;23.23;;;;;;;;;;5021519;28;20657;-71
2021/07/14 11:57:52;;;;;;;33.78;23.90;;;;;;;;;;5010344;28;20189;-71
2021/07/14 12:00:30;;;;;;;25.83;23.23;;;;;;;;;;5019752;28;20203;-71
2021/07/14 12:03:00;;;;;;;26.30;23.58;;;;;;;;;;5022133;28;20228;-70
2021/07/14 12:05:33;;;;;;;26.95;23.55;;;;;;;;;;5016247;28;20535;-70
2021/07/14 12:08:12;;;;;;;28.95;23.75;;;;;;;;;;5020472;28;20603;-69
2021/07/14 12:10:39;;;;;;;26.65;22.48;;;;;;;;;;5012529;28;20208;-70
2021/07/14 12:13:07;;;;;;;26.58;22.55;;;;;;;;;;5018821;28;20274;-69
2021/07/14 12:15:44;;;;;;;25.15;22.20;;;;;;;;;;5011384;28;20197;-71
2021/07/14 12:18:09;;;;;;;25.00;21.40;;;;;;;;;;5023182;28;20194;-71
2021/07/14 12:20:35;;;;;;;27.98;22.60;;;;;;;;;;5012614;28;20200;-70
2021/07/14 12:23:00;;;;;;;28.13;21.48;;;;;;;;;;5021975;28;20214;-72
2021/07/14 12:25:26;;;;;;;25.17;22.55;;;;;;;;;;5009555;28;20276;-70
2021/07/14 12:27:51;;;;;;;24.90;21.05;;;;;;;;;;5021492;28;20581;-71
2021/07/14 12:30:21;;;;;;;22.95;20.67;;;;;;;;;;5012023;28;20517;-71
2021/07/14 12:32:58;;;;;;;28.52;21.00;;;;;;;;;;5022569;28;20661;-71
2021/07/14 12:35:27;;;;;;;24.85;22.17;;;;;;;;;;5016014;28;20201;-71
2021/07/14 12:37:56;;;;;;;30.88;22.98;;;;;;;;;;5025337;28;20213;-70
2021/07/14 12:40:45;;;;;;;28.55;22.45;;;;;;;;;;5015012;28;20264;-70
2021/07/14 12:43:15;;;;;;;27.85;22.88;;;;;;;;;;5009447;28;20368;-70
2021/07/14 12:45:43;;;;;;;26.17;23.15;;;;;;;;;;5019909;28;20190;-71
2021/07/14 12:48:11;;;;;;;29.55;23.45;;;;;;;;;;5026840;28;20209;-70
2021/07/14 12:50:39;;;;;;;27.48;23.77;;;;;;;;;;5016360;28;20612;-70
2021/07/14 12:53:06;;;;;;;28.23;23.83;;;;;;;;;;5026670;28;20265;-70
2021/07/14 12:55:34;;;;;;;29.35;23.42;;;;;;;;;;5021997;28;20319;-70
2021/07/14 12:58:22;;;;;;;30.10;22.70;;;;;;;;;;5019645;28;20193;-71
2021/07/14 13:00:52;;;;;;;33.78;25.00;;;;;;;;;;5026001;28;20202;-69
2021/07/14 13:03:19;;;;;;;30.55;23.75;;;;;;;;;;5016704;28;20206;-70
2021/07/14 13:05:45;;;;;;;29.58;23.83;;;;;;;;;;5026156;28;20292;-70
2021/07/14 13:08:31;;;;;;;32.47;24.23;;;;;;;;;;5018764;28;20197;-75
2021/07/14 13:10:58;;;;;;;30.05;24.30;;;;;;;;;;5024785;28;20271;-73
2021/07/14 13:13:25;;;;;;;29.60;25.40;;;;;;;;;;5018001;28;20995;-70
2021/07/14 13:15:53;;;;;;;27.63;23.30;;;;;;;;;;5025626;28;20195;-74
2021/07/14 13:18:18;;;;;;;30.38;24.05;;;;;;;;;;5016614;28;20280;-70
2021/07/14 13:20:48;;;;;;;29.33;23.67;;;;;;;;;;5025015;28;20311;-70
2021/07/14 13:23:18;;;;;;;29.63;24.40;;;;;;;;;;5014941;28;20185;-70
2021/07/14 13:25:50;;;;;;;28.20;23.08;;;;;;;;;;5005760;28;20650;-69
2021/07/14 13:28:21;;;;;;;26.92;21.55;;;;;;;;;;5015841;28;20198;-69
2021/07/14 13:31:06;;;;;;;28.60;21.00;;;;;;;;;;5021771;28;20234;-69
2021/07/14 13:33:39;;;;;;;24.30;20.60;;;;;;;;;;5020791;28;20232;-71
2021/07/14 13:36:13;;;;;;;26.90;21.00;;;;;;;;;;5021397;28;20181;-69
2021/07/14 13:38:52;;;;;;;23.73;20.10;;;;;;;;;;5023566;28;20272;-69
2021/07/14 13:41:24;;;;;;;26.73;19.95;;;;;;;;;;5020777;28;20178;-68
2021/07/14 13:43:58;;;;;;;23.70;20.95;;;;;;;;;;5016986;28;20178;-70
2021/07/14 13:46:24;;;;;;;24.77;20.48;;;;;;;;;;5024350;28;20181;-71
2021/07/14 13:49:06;;;;;;;21.67;19.42;;;;;;;;;;5019144;28;20724;-69
2021/07/14 13:51:34;;;;;;;22.27;19.67;;;;;;;;;;5024458;28;20220;-71
2021/07/14 13:54:22;;;;;;;23.80;20.42;;;;;;;;;;5016106;28;20194;-70
2021/07/14 13:56:59;;;;;;;22.80;19.77;;;;;;;;;;5020277;28;20178;-71
2021/07/14 13:59:31;;;;;;;23.95;19.73;;;;;;;;;;5000249;28;20723;-69
2021/07/14 14:02:00;;;;;;;24.08;19.90;;;;;;;;;;5022054;28;20578;-70
2021/07/14 14:04:26;;;;;;;22.83;19.40;;;;;;;;;;5015855;28;20191;-69
2021/07/14 14:06:52;;;;;;;21.33;18.65;;;;;;;;;;5022545;28;20194;-70
2021/07/14 14:09:21;;;;;;;23.63;19.38;;;;;;;;;;5021737;28;20190;-70
2021/07/14 14:11:47;;;;;;;22.98;18.42;;;;;;;;;;5016655;28;20258;-70
2021/07/14 14:14:13;;;;;;;23.88;19.02;;;;;;;;;;5023303;28;20236;-70
2021/07/14 14:16:39;;;;;;;21.92;17.95;;;;;;;;;;5010451;28;20608;-71
2021/07/14 14:19:08;;;;;;;26.60;18.98;;;;;;;;;;5022469;28;20222;-69
2021/07/14 14:21:35;;;;;;;20.92;17.27;;;;;;;;;;5011885;28;20646;-72
2021/07/14 14:24:04;;;;;;;20.90;18.60;;;;;;;;;;5008201;28;20178;-69
2021/07/14 14:26:30;;;;;;;21.35;17.52;;;;;;;;;;5011929;28;20228;-71
2021/07/14 14:28:55;;;;;;;23.00;17.23;;;;;;;;;;5023940;28;20592;-69
2021/07/14 14:31:21;;;;;;;26.48;17.65;;;;;;;;;;5015327;28;20182;-69